createdAt,value
2017-08-10T00:00:19.241Z,12.67
2017-08-10T00:02:47.712Z,12.20
2017-08-10T00:05:15.874Z,11.77
2017-08-10T00:07:44.355Z,12.00
2017-08-10T00:10:12.757Z,12.27
2017-08-10T00:12:41.692Z,10.97
2017-08-10T00:15:09.781Z,10.97
2017-08-10T00:17:37.785Z,10.87
2017-08-10T00:22:41.057Z,11.73
2017-08-10T00:25:11.127Z,11.70
2017-08-10T00:27:41.647Z,11.77
2017-08-10T00:30:10.846Z,11.97
2017-08-10T00:32:40.051Z,11.97
2017-08-10T00:35:08.733Z,12.27
2017-08-10T00:37:36.313Z,11.60
2017-08-10T00:40:04.389Z,12.20
2017-08-10T00:42:32.632Z,11.20
2017-08-10T00:45:00.562Z,11.50
2017-08-10T00:47:33.700Z,12.87
2017-08-10T00:50:02.734Z,12.73
2017-08-10T00:52:30.608Z,13.47
2017-08-10T00:54:58.695Z,13.20
2017-08-10T00:57:26.965Z,12.63
2017-08-10T00:59:55.156Z,11.80
2017-08-10T01:02:23.886Z,13.83
2017-08-10T01:04:51.765Z,12.27
2017-08-10T01:07:19.768Z,12.47
2017-08-10T01:09:47.718Z,12.97
2017-08-10T01:12:17.755Z,13.10
2017-08-10T01:14:45.404Z,13.50
2017-08-10T01:17:13.567Z,12.87
2017-08-10T01:19:41.973Z,13.47
2017-08-10T01:22:10.963Z,12.53
2017-08-10T01:24:39.555Z,12.80
2017-08-10T01:27:08.288Z,12.10
2017-08-10T01:29:37.107Z,13.43
2017-08-10T01:32:05.380Z,12.57
2017-08-10T01:34:35.553Z,14.70
2017-08-10T01:37:03.851Z,12.83
2017-08-10T01:39:31.879Z,12.53
2017-08-10T01:41:59.562Z,12.33
2017-08-10T01:44:28.511Z,12.20
2017-08-10T01:46:57.743Z,13.03
2017-08-10T01:49:26.616Z,12.90
2017-08-10T01:51:56.877Z,11.73
2017-08-10T01:54:26.804Z,11.13
2017-08-10T01:56:54.670Z,12.43
2017-08-10T01:59:22.389Z,12.47
2017-08-10T02:01:51.178Z,12.40
2017-08-10T02:04:20.025Z,12.10
2017-08-10T02:06:48.252Z,12.10
2017-08-10T02:09:16.927Z,11.60
2017-08-10T02:11:45.290Z,12.07
2017-08-10T02:14:13.988Z,13.00
2017-08-10T02:16:42.175Z,11.77
2017-08-10T02:19:10.303Z,12.53
2017-08-10T02:21:38.428Z,13.53
2017-08-10T02:24:08.235Z,14.47
2017-08-10T02:26:35.859Z,13.20
2017-08-10T02:29:03.672Z,13.80
2017-08-10T02:31:31.263Z,15.17
2017-08-10T02:33:59.119Z,15.00
2017-08-10T02:36:27.086Z,16.47
2017-08-10T02:38:54.646Z,16.93
2017-08-10T02:41:22.452Z,16.60
2017-08-10T02:43:50.382Z,16.70
2017-08-10T02:46:18.074Z,16.57
2017-08-10T02:48:45.636Z,17.50
2017-08-10T02:51:13.298Z,16.87
2017-08-10T02:53:40.910Z,15.87
2017-08-10T02:56:08.666Z,15.70
2017-08-10T02:58:37.154Z,16.10
2017-08-10T03:01:05.115Z,16.50
2017-08-10T03:03:33.764Z,16.80
2017-08-10T03:06:01.574Z,16.90
2017-08-10T03:08:29.464Z,18.40
2017-08-10T03:10:57.329Z,16.27
2017-08-10T03:13:25.114Z,16.80
2017-08-10T03:15:53.401Z,16.27
2017-08-10T03:18:20.964Z,16.47
2017-08-10T03:20:48.580Z,16.87
2017-08-10T03:23:17.015Z,16.70
2017-08-10T03:25:44.934Z,16.47
2017-08-10T03:28:12.985Z,17.27
2017-08-10T03:30:40.809Z,16.17
2017-08-10T03:33:08.977Z,15.40
2017-08-10T03:35:47.137Z,15.63
2017-08-10T03:38:15.207Z,15.50
2017-08-10T03:40:42.865Z,16.57
2017-08-10T03:43:11.146Z,15.97
2017-08-10T03:45:38.929Z,15.97
2017-08-10T03:48:07.072Z,16.30
2017-08-10T03:50:34.750Z,16.83
2017-08-10T03:53:02.291Z,16.17
2017-08-10T03:55:30.029Z,16.47
2017-08-10T03:57:57.611Z,17.40
2017-08-10T04:00:26.312Z,15.90
2017-08-10T04:02:54.018Z,15.80
2017-08-10T04:05:23.311Z,16.00
2017-08-10T04:07:54.672Z,16.47
2017-08-10T04:10:26.109Z,16.40
2017-08-10T04:12:55.816Z,15.40
2017-08-10T04:15:29.099Z,15.80
2017-08-10T04:17:58.073Z,16.40
2017-08-10T04:20:27.922Z,16.30
2017-08-10T04:22:57.939Z,16.23
2017-08-10T04:25:31.027Z,14.70
2017-08-10T04:28:01.209Z,15.60
2017-08-10T04:30:29.901Z,14.37
2017-08-10T04:32:59.403Z,14.67
2017-08-10T04:35:27.507Z,14.23
2017-08-10T04:37:55.614Z,13.90
2017-08-10T04:40:23.798Z,14.33
2017-08-10T04:42:52.301Z,14.40
2017-08-10T04:45:20.130Z,14.00
2017-08-10T04:47:48.633Z,13.20
2017-08-10T04:50:16.754Z,14.27
2017-08-10T04:52:45.290Z,14.00
2017-08-10T04:55:15.601Z,14.60
2017-08-10T04:57:49.147Z,13.60
2017-08-10T05:00:19.542Z,15.10
2017-08-10T05:02:49.092Z,14.37
2017-08-10T05:05:19.012Z,14.57
2017-08-10T05:07:50.107Z,14.67
2017-08-10T05:10:18.177Z,14.87
2017-08-10T05:12:47.041Z,13.77
2017-08-10T05:15:14.755Z,13.70
2017-08-10T05:17:42.635Z,14.03
2017-08-10T05:20:13.049Z,14.50
2017-08-10T05:22:41.953Z,14.00
2017-08-10T05:25:10.302Z,13.70
2017-08-10T05:27:39.686Z,13.67
2017-08-10T05:30:08.008Z,13.20
2017-08-10T05:32:39.984Z,13.73
2017-08-10T05:35:08.550Z,13.90
2017-08-10T05:37:36.213Z,13.63
2017-08-10T05:40:09.953Z,13.50
2017-08-10T05:42:40.091Z,13.03
2017-08-10T05:45:09.575Z,12.73
2017-08-10T05:47:38.606Z,14.07
2017-08-10T05:50:08.136Z,12.30
2017-08-10T05:52:36.471Z,13.23
2017-08-10T05:55:08.302Z,13.10
2017-08-10T05:57:37.083Z,14.63
2017-08-10T06:00:04.694Z,13.40
2017-08-10T06:02:33.513Z,13.90
2017-08-10T06:05:06.443Z,13.90
2017-08-10T06:07:35.640Z,14.27
2017-08-10T06:10:03.543Z,14.40
2017-08-10T06:12:32.009Z,14.80
2017-08-10T06:15:01.109Z,15.00
2017-08-10T06:17:30.027Z,15.47
2017-08-10T06:19:58.074Z,15.30
2017-08-10T06:22:31.012Z,16.53
2017-08-10T06:25:00.933Z,15.83
2017-08-10T06:27:29.474Z,16.50
2017-08-10T06:29:59.934Z,16.20
2017-08-10T06:35:11.770Z,17.03
2017-08-10T06:37:42.140Z,18.00
2017-08-10T06:40:11.781Z,18.27
2017-08-10T06:42:41.082Z,20.30
2017-08-10T06:45:15.296Z,19.07
2017-08-10T06:47:45.277Z,18.60
2017-08-10T06:50:17.020Z,21.43
2017-08-10T06:55:26.083Z,18.00
2017-08-10T06:57:54.189Z,18.00
2017-08-10T07:00:22.368Z,19.50
2017-08-10T07:02:51.778Z,17.90
2017-08-10T07:05:20.451Z,19.00
2017-08-10T07:07:51.008Z,18.73
2017-08-10T07:10:20.508Z,20.00
2017-08-10T07:12:51.597Z,19.40
2017-08-10T07:15:22.593Z,19.77
2017-08-10T07:17:53.108Z,19.63
2017-08-10T07:20:21.195Z,18.60
2017-08-10T07:22:52.201Z,18.93
2017-08-10T07:25:22.356Z,19.10
2017-08-10T07:27:52.854Z,19.80
2017-08-10T07:30:22.461Z,19.57
2017-08-10T07:32:51.610Z,20.30
2017-08-10T07:35:26.236Z,21.83
2017-08-10T07:37:57.336Z,19.60
2017-08-10T07:40:26.311Z,20.87
2017-08-10T07:42:55.798Z,22.20
2017-08-10T07:45:25.405Z,21.73
2017-08-10T07:47:57.364Z,21.97
2017-08-10T07:50:25.420Z,21.77
2017-08-10T07:52:55.934Z,22.40
2017-08-10T07:55:28.874Z,22.40
2017-08-10T07:57:58.500Z,22.20
2017-08-10T08:00:28.425Z,23.07
2017-08-10T08:02:56.563Z,23.47
2017-08-10T08:05:25.069Z,23.03
2017-08-10T08:07:55.040Z,21.33
2017-08-10T08:10:23.328Z,19.47
2017-08-10T08:12:52.970Z,22.90
2017-08-10T08:15:25.054Z,20.97
2017-08-10T08:17:54.029Z,20.40
2017-08-10T08:20:23.153Z,20.00
2017-08-10T08:22:52.355Z,19.63
2017-08-10T08:25:21.821Z,20.37
2017-08-10T08:27:51.375Z,19.80
2017-08-10T08:30:19.708Z,22.80
2017-08-10T08:32:50.438Z,20.63
2017-08-10T08:35:19.048Z,21.50
2017-08-10T08:37:48.510Z,21.37
2017-08-10T08:40:17.936Z,20.70
2017-08-10T08:42:47.955Z,20.00
2017-08-10T08:45:15.870Z,20.57
2017-08-10T08:47:44.877Z,21.80
2017-08-10T08:50:13.861Z,20.67
2017-08-10T08:52:42.143Z,20.37
2017-08-10T08:55:10.357Z,20.33
2017-08-10T08:57:37.931Z,20.40
2017-08-10T09:00:14.070Z,22.57
2017-08-10T09:05:24.568Z,24.07
2017-08-10T09:07:52.831Z,22.80
2017-08-10T09:10:21.424Z,22.73
2017-08-10T09:12:49.908Z,22.10
2017-08-10T09:15:23.898Z,22.83
2017-08-10T09:17:52.360Z,21.93
2017-08-10T09:20:20.769Z,23.27
2017-08-10T09:22:48.331Z,22.47
2017-08-10T09:25:24.280Z,20.97
2017-08-10T09:27:52.596Z,20.40
2017-08-10T09:30:20.283Z,22.27
2017-08-10T09:32:48.403Z,22.00
2017-08-10T09:35:16.649Z,22.63
2017-08-10T09:37:44.706Z,21.27
2017-08-10T09:40:17.800Z,24.43
2017-08-10T09:42:51.015Z,21.23
2017-08-10T09:45:21.554Z,21.87
2017-08-10T09:48:00.442Z,21.30
2017-08-10T09:50:35.373Z,21.07
2017-08-10T09:53:03.573Z,20.73
2017-08-10T09:55:36.315Z,20.10
2017-08-10T10:00:45.309Z,20.00
2017-08-10T10:03:15.118Z,19.87
2017-08-10T10:05:45.235Z,18.70
2017-08-10T10:08:14.828Z,19.20
2017-08-10T10:13:21.056Z,19.77
2017-08-10T10:15:49.332Z,19.60
2017-08-10T10:18:24.101Z,18.53
2017-08-10T10:20:52.495Z,18.80
2017-08-10T10:23:22.475Z,19.50
2017-08-10T10:25:54.954Z,18.47
2017-08-10T10:28:26.447Z,18.87
2017-08-10T10:30:55.734Z,18.80
2017-08-10T10:33:25.008Z,18.40
2017-08-10T10:38:27.874Z,20.27
2017-08-10T10:41:00.652Z,18.87
2017-08-10T10:43:29.001Z,21.00
2017-08-10T10:45:58.785Z,21.50
2017-08-10T10:48:27.050Z,23.30
2017-08-10T10:51:11.425Z,19.93
2017-08-10T10:53:39.688Z,20.50
2017-08-10T10:56:08.376Z,19.53
2017-08-10T10:58:36.279Z,20.43
2017-08-10T11:01:06.782Z,20.00
2017-08-10T11:03:35.169Z,20.47
2017-08-10T11:06:04.964Z,21.37
2017-08-10T11:08:32.939Z,21.80
2017-08-10T11:11:10.680Z,22.33
2017-08-10T11:13:39.366Z,19.87
2017-08-10T11:18:58.620Z,23.60
2017-08-10T11:21:31.224Z,21.40
2017-08-10T11:26:32.699Z,19.90
2017-08-10T11:29:04.202Z,20.90
2017-08-10T11:31:36.061Z,21.07
2017-08-10T11:34:09.793Z,22.00
2017-08-10T11:36:50.235Z,22.13
2017-08-10T11:39:20.768Z,22.13
2017-08-10T11:41:53.377Z,22.00
2017-08-10T11:44:23.785Z,25.97
2017-08-10T11:46:51.748Z,24.93
2017-08-10T11:49:20.370Z,21.60
2017-08-10T11:51:53.101Z,22.43
2017-08-10T11:54:21.304Z,24.23
2017-08-10T11:56:51.006Z,23.27
2017-08-10T11:59:19.756Z,23.40
2017-08-10T12:01:57.018Z,24.50
2017-08-10T12:04:25.096Z,25.23
2017-08-10T12:06:55.172Z,24.50
2017-08-10T12:09:29.015Z,23.20
2017-08-10T12:11:57.466Z,25.80
2017-08-10T12:14:38.598Z,26.27
2017-08-10T12:17:14.102Z,27.87
2017-08-10T12:19:44.479Z,25.33
2017-08-10T12:22:12.504Z,27.90
2017-08-10T12:24:48.228Z,28.83
2017-08-10T12:27:17.076Z,30.07
2017-08-10T12:29:45.222Z,29.30
2017-08-10T12:32:13.289Z,29.97
2017-08-10T12:34:43.424Z,29.30
2017-08-10T12:37:12.374Z,29.40
2017-08-10T12:39:40.660Z,31.30
2017-08-10T12:42:08.561Z,31.60
2017-08-10T12:44:40.276Z,29.40
2017-08-10T12:47:09.260Z,30.93
2017-08-10T12:49:38.365Z,31.07
2017-08-10T12:52:08.922Z,27.33
2017-08-10T12:54:36.992Z,30.27
2017-08-10T12:59:58.983Z,28.00
2017-08-10T13:02:27.016Z,25.33
2017-08-10T13:04:56.510Z,26.30
2017-08-10T13:07:30.482Z,23.10
2017-08-10T13:09:59.069Z,21.37
2017-08-10T13:12:27.386Z,21.13
2017-08-10T13:14:55.725Z,20.73
2017-08-10T13:17:25.476Z,21.20
2017-08-10T13:19:54.609Z,21.23
2017-08-10T13:22:23.154Z,22.23
2017-08-10T13:24:52.542Z,22.13
2017-08-10T13:27:41.715Z,24.20
2017-08-10T13:30:12.904Z,23.80
2017-08-10T13:32:53.740Z,23.50
2017-08-10T13:35:22.411Z,25.40
2017-08-10T13:37:54.293Z,26.70
2017-08-10T13:40:30.554Z,25.80
2017-08-10T13:43:03.031Z,26.40
2017-08-10T13:45:43.843Z,26.63
2017-08-10T13:48:24.554Z,26.50
2017-08-10T13:53:51.000Z,25.87
2017-08-10T13:56:25.441Z,27.57
2017-08-10T13:59:02.534Z,29.07
2017-08-10T14:04:27.456Z,25.80
2017-08-10T14:07:05.363Z,27.43
2017-08-10T14:09:37.204Z,26.50
2017-08-10T14:12:08.769Z,26.40
2017-08-10T14:14:38.344Z,26.43
2017-08-10T14:17:08.843Z,26.13
2017-08-10T14:19:38.125Z,25.90
2017-08-10T14:22:11.826Z,24.17
2017-08-10T14:24:46.395Z,22.67
2017-08-10T14:27:17.971Z,23.47
2017-08-10T14:29:48.541Z,23.47
2017-08-10T14:32:18.309Z,19.67
2017-08-10T14:34:56.795Z,22.20
2017-08-10T14:37:28.457Z,20.93
2017-08-10T14:40:00.291Z,19.60
2017-08-10T14:42:30.353Z,21.47
2017-08-10T14:45:02.573Z,21.47
2017-08-10T14:47:50.474Z,21.40
2017-08-10T14:53:04.576Z,23.60
2017-08-10T14:58:52.589Z,23.80
2017-08-10T15:07:31.559Z,28.20
2017-08-10T15:12:59.949Z,29.20
2017-08-10T15:18:43.788Z,27.30
2017-08-10T15:27:14.938Z,27.40
2017-08-10T15:35:29.148Z,25.47
2017-08-10T15:37:58.707Z,23.63
2017-08-10T15:40:29.183Z,24.87
2017-08-10T15:43:03.097Z,24.20
2017-08-10T15:45:31.929Z,24.37
2017-08-10T15:48:02.848Z,25.27
2017-08-10T15:50:33.981Z,26.73
2017-08-10T15:53:08.617Z,26.00
2017-08-10T15:55:37.574Z,28.57
2017-08-10T15:58:18.639Z,29.00
2017-08-10T16:00:48.704Z,29.47
2017-08-10T16:03:19.140Z,28.63
2017-08-10T16:05:48.830Z,30.30
2017-08-10T16:08:24.883Z,31.50
2017-08-10T16:10:59.914Z,31.53
2017-08-10T16:13:41.904Z,33.50
2017-08-10T16:16:22.103Z,38.43
2017-08-10T16:21:37.109Z,37.57
2017-08-10T16:26:44.970Z,39.80
2017-08-10T16:29:14.620Z,42.10
2017-08-10T16:31:44.986Z,39.73
2017-08-10T16:34:15.109Z,43.03
2017-08-10T16:36:43.838Z,41.33
2017-08-10T16:39:15.384Z,43.07
2017-08-10T16:44:23.315Z,41.90
2017-08-10T16:46:51.641Z,41.63
2017-08-10T16:49:21.142Z,43.07
2017-08-10T16:51:49.131Z,42.37
2017-08-10T16:54:16.944Z,44.50
2017-08-10T16:56:45.751Z,52.17
2017-08-10T16:59:14.453Z,46.27
2017-08-10T17:01:48.570Z,45.67
2017-08-10T17:04:17.316Z,47.10
2017-08-10T17:06:45.662Z,47.17
2017-08-10T17:09:15.885Z,49.23
2017-08-10T17:11:44.010Z,49.30
2017-08-10T17:14:17.219Z,48.53
2017-08-10T17:16:44.968Z,45.43
2017-08-10T17:19:15.035Z,46.37
2017-08-10T17:21:43.098Z,45.73
2017-08-10T17:24:10.708Z,45.10
2017-08-10T17:26:39.009Z,44.80
2017-08-10T17:29:09.955Z,44.80
2017-08-10T17:34:16.209Z,46.03
2017-08-10T17:36:44.139Z,43.60
2017-08-10T17:39:12.104Z,47.53
2017-08-10T17:41:40.355Z,46.10
2017-08-10T17:44:08.966Z,47.63
2017-08-10T17:46:39.086Z,47.60
2017-08-10T17:54:42.198Z,49.03
2017-08-10T17:57:17.927Z,47.50
2017-08-10T17:59:48.270Z,46.33
2017-08-10T18:02:17.974Z,46.53
2017-08-10T18:04:46.608Z,48.67
2017-08-10T18:07:19.121Z,51.10
2017-08-10T18:09:47.943Z,47.40
2017-08-10T18:12:15.842Z,47.03
2017-08-10T18:14:45.452Z,48.07
2017-08-10T18:17:15.501Z,49.30
2017-08-10T18:19:44.301Z,47.87
2017-08-10T18:22:12.282Z,49.67
2017-08-10T18:24:40.556Z,46.60
2017-08-10T18:27:08.700Z,48.10
2017-08-10T18:29:37.165Z,44.27
2017-08-10T18:32:05.179Z,45.93
2017-08-10T18:34:34.110Z,48.10
2017-08-10T18:37:01.894Z,45.10
2017-08-10T18:39:31.235Z,45.30
2017-08-10T18:41:59.430Z,45.60
2017-08-10T18:44:29.192Z,43.83
2017-08-10T18:46:57.770Z,45.37
2017-08-10T18:49:26.631Z,47.90
2017-08-10T18:51:57.556Z,46.77
2017-08-10T18:54:25.767Z,48.00
2017-08-10T18:56:53.882Z,44.90
2017-08-10T18:59:26.143Z,46.23
2017-08-10T19:01:54.701Z,47.17
2017-08-10T19:04:22.916Z,47.00
2017-08-10T19:06:55.135Z,48.37
2017-08-10T19:09:22.792Z,47.57
2017-08-10T19:11:50.391Z,48.30
2017-08-10T19:14:19.012Z,51.03
2017-08-10T19:16:46.501Z,51.83
2017-08-10T19:19:14.387Z,47.13
2017-08-10T19:21:41.925Z,45.27
2017-08-10T19:24:09.399Z,46.40
2017-08-10T19:26:37.085Z,48.17
2017-08-10T19:29:04.771Z,44.43
2017-08-10T19:31:32.347Z,45.00
2017-08-10T19:33:59.798Z,45.00
2017-08-10T19:36:27.340Z,47.43
2017-08-10T19:38:54.948Z,48.47
2017-08-10T19:41:23.267Z,49.20
2017-08-10T19:43:50.829Z,45.50
2017-08-10T19:46:18.280Z,48.70
2017-08-10T19:48:45.801Z,46.03
2017-08-10T19:51:13.354Z,42.40
2017-08-10T19:53:40.889Z,42.33
2017-08-10T19:56:10.927Z,47.00
2017-08-10T19:58:43.328Z,46.80
